createdAt,value
2023-10-17T00:02:13.750Z,92972.41
2023-10-17T00:04:45.756Z,92966.31
2023-10-17T00:07:15.376Z,92977.13
2023-10-17T00:09:44.536Z,92943.13
2023-10-17T00:12:16.161Z,92939.44
2023-10-17T00:14:47.943Z,92944.31
2023-10-17T00:17:21.082Z,92951.47
2023-10-17T00:19:52.771Z,92948.91
2023-10-17T00:22:21.591Z,92941.75
2023-10-17T00:24:50.777Z,92935.09
2023-10-17T00:27:18.790Z,92933.19
2023-10-17T00:29:47.934Z,92944.09
2023-10-17T00:32:17.258Z,92932.44
2023-10-17T00:34:48.687Z,92926.47
2023-10-17T00:37:17.288Z,92925.59
2023-10-17T00:39:45.934Z,92930.41
2023-10-17T00:42:30.017Z,92903.53
2023-10-17T00:44:58.704Z,92924.66
2023-10-17T00:47:28.803Z,92918.28
2023-10-17T00:49:58.545Z,92912.00
2023-10-17T00:52:31.564Z,92909.13
2023-10-17T00:55:01.444Z,92912.69
2023-10-17T00:57:30.206Z,92909.63
2023-10-17T01:00:00.055Z,92888.31
2023-10-17T01:02:32.349Z,92903.72
2023-10-17T01:05:01.602Z,92876.16
2023-10-17T01:07:33.152Z,92894.09
2023-10-17T01:10:29.161Z,92865.16
2023-10-17T01:13:05.650Z,92862.84
2023-10-17T01:15:35.268Z,92883.56
2023-10-17T01:18:07.156Z,92867.22
2023-10-17T01:20:37.981Z,92858.28
2023-10-17T01:23:06.767Z,92857.22
2023-10-17T01:25:43.857Z,92824.63
2023-10-17T01:28:12.563Z,92821.03
2023-10-17T01:30:43.374Z,92823.81
2023-10-17T01:33:12.468Z,92839.13
2023-10-17T01:35:46.607Z,92828.00
2023-10-17T01:38:15.804Z,92804.28
2023-10-17T01:40:44.687Z,92816.81
2023-10-17T01:43:13.378Z,92823.63
2023-10-17T01:45:44.813Z,92807.50
2023-10-17T01:48:14.994Z,92816.41
2023-10-17T01:50:43.662Z,92786.81
2023-10-17T01:53:15.794Z,92812.53
2023-10-17T01:55:54.698Z,92787.31
2023-10-17T01:58:24.429Z,92796.72
2023-10-17T02:00:57.278Z,92808.59
2023-10-17T02:03:25.884Z,92812.78
2023-10-17T02:05:54.942Z,92797.59
2023-10-17T02:08:25.040Z,92835.00
2023-10-17T02:10:53.658Z,92817.97
2023-10-17T02:13:23.721Z,92822.13
2023-10-17T02:15:53.371Z,92824.53
2023-10-17T02:18:22.001Z,92807.47
2023-10-17T02:20:53.904Z,92814.19
2023-10-17T02:23:22.603Z,92785.41
2023-10-17T02:25:52.843Z,92780.84
2023-10-17T02:28:22.724Z,92782.22
2023-10-17T02:30:51.340Z,92777.09
2023-10-17T02:33:20.122Z,92791.63
2023-10-17T02:36:06.707Z,92784.00
2023-10-17T02:38:34.967Z,92763.38
2023-10-17T02:41:03.922Z,92745.28
2023-10-17T02:43:32.647Z,92753.44
2023-10-17T02:46:06.741Z,92752.38
2023-10-17T02:48:56.073Z,92749.19
2023-10-17T02:51:25.237Z,92737.72
2023-10-17T02:53:58.888Z,92728.84
2023-10-17T02:56:28.945Z,92734.16
2023-10-17T02:59:20.115Z,92739.72
2023-10-17T03:01:55.596Z,92708.16
2023-10-17T03:04:28.245Z,92736.28
2023-10-17T03:06:57.009Z,92701.22
2023-10-17T03:09:25.433Z,92729.56
2023-10-17T03:11:58.902Z,92702.03
2023-10-17T03:14:46.327Z,92711.81
2023-10-17T03:17:17.361Z,92689.13
2023-10-17T03:19:46.020Z,92704.25
2023-10-17T03:22:29.947Z,92677.28
2023-10-17T03:25:04.990Z,92678.34
2023-10-17T03:27:50.997Z,92681.34
2023-10-17T03:30:23.672Z,92695.03
2023-10-17T03:33:00.858Z,92671.06
2023-10-17T03:35:32.233Z,92661.31
2023-10-17T03:38:03.598Z,92678.72
2023-10-17T03:40:36.633Z,92677.75
2023-10-17T03:43:24.969Z,92673.34
2023-10-17T03:45:59.549Z,92651.22
2023-10-17T03:48:31.559Z,92642.81
2023-10-17T03:51:01.534Z,92656.03
2023-10-17T03:53:33.068Z,92657.56
2023-10-17T03:56:05.043Z,92655.47
2023-10-17T03:58:34.001Z,92650.25
2023-10-17T04:01:13.834Z,92653.53
2023-10-17T04:03:43.907Z,92648.91
2023-10-17T04:06:12.679Z,92613.50
2023-10-17T04:09:07.284Z,92622.94
2023-10-17T04:11:39.359Z,92639.47
2023-10-17T04:14:12.480Z,92641.13
2023-10-17T04:16:46.660Z,92639.09
2023-10-17T04:19:22.781Z,92632.56
2023-10-17T04:22:22.003Z,92625.72
2023-10-17T04:24:51.719Z,92618.50
2023-10-17T04:27:20.390Z,92599.66
2023-10-17T04:29:58.948Z,92611.19
2023-10-17T04:32:31.592Z,92609.28
2023-10-17T04:35:00.464Z,92595.88
2023-10-17T04:37:35.169Z,92573.28
2023-10-17T04:40:22.554Z,92594.34
2023-10-17T04:42:54.945Z,92566.72
2023-10-17T04:45:26.281Z,92575.19
2023-10-17T04:48:13.975Z,92586.25
2023-10-17T04:50:58.649Z,92584.53
2023-10-17T04:53:37.987Z,92573.25
2023-10-17T04:56:16.420Z,92570.47
2023-10-17T04:59:05.450Z,92559.44
2023-10-17T05:01:38.525Z,92576.44
2023-10-17T05:04:35.963Z,92572.56
2023-10-17T05:07:04.896Z,92543.06
2023-10-17T05:09:37.802Z,92569.13
2023-10-17T05:12:24.882Z,92570.66
2023-10-17T05:15:12.032Z,92567.97
2023-10-17T05:17:59.157Z,92571.16
2023-10-17T05:20:46.326Z,92538.22
2023-10-17T05:23:33.396Z,92563.13
2023-10-17T05:26:27.891Z,92532.84
2023-10-17T05:29:14.675Z,92556.88
2023-10-17T05:32:02.164Z,92540.81
2023-10-17T05:34:53.418Z,92531.69
2023-10-17T05:37:40.902Z,92541.88
2023-10-17T05:40:28.114Z,92538.09
2023-10-17T05:43:15.190Z,92534.16
2023-10-17T05:46:02.103Z,92532.19
2023-10-17T05:48:48.945Z,92541.75
2023-10-17T05:51:36.187Z,92521.69
2023-10-17T05:57:12.785Z,92534.75
2023-10-17T05:59:59.461Z,92534.09
2023-10-17T06:02:46.881Z,92527.34
2023-10-17T06:05:34.101Z,92508.69
2023-10-17T06:08:21.070Z,92514.50
2023-10-17T06:11:28.546Z,92495.16
2023-10-17T06:14:14.860Z,92513.44
2023-10-17T06:16:54.278Z,92513.44
2023-10-17T06:19:23.322Z,92518.16
2023-10-17T06:22:04.259Z,92504.13
2023-10-17T06:24:48.742Z,92508.63
2023-10-17T06:27:45.035Z,92500.56
2023-10-17T06:30:52.743Z,92476.34
2023-10-17T06:33:21.672Z,92490.38
2023-10-17T06:35:57.465Z,92488.06
2023-10-17T06:38:30.323Z,92462.97
2023-10-17T06:41:17.232Z,92482.00
2023-10-17T06:43:57.435Z,92483.94
2023-10-17T06:46:33.613Z,92465.94
2023-10-17T06:49:11.023Z,92470.75
2023-10-17T06:51:39.827Z,92474.41
2023-10-17T06:54:09.556Z,92477.78
2023-10-17T06:56:47.382Z,92463.16
2023-10-17T06:59:27.073Z,92467.78
2023-10-17T07:02:31.450Z,92465.84
2023-10-17T07:05:03.787Z,92466.53
2023-10-17T07:07:42.495Z,92468.06
2023-10-17T07:10:27.254Z,92461.81
2023-10-17T07:13:34.517Z,92446.81
2023-10-17T07:16:23.536Z,92431.03
2023-10-17T07:18:54.081Z,92431.91
2023-10-17T07:21:26.491Z,92451.34
2023-10-17T07:23:57.221Z,92448.94
2023-10-17T07:26:31.744Z,92454.41
2023-10-17T07:29:00.404Z,92449.78
2023-10-17T07:31:31.170Z,92446.72
2023-10-17T07:34:18.753Z,92456.72
2023-10-17T07:36:50.083Z,92454.41
2023-10-17T07:39:32.377Z,92443.91
2023-10-17T07:42:00.623Z,92425.44
2023-10-17T07:44:30.234Z,92433.66
2023-10-17T07:47:09.338Z,92435.56
2023-10-17T07:49:44.966Z,92423.41
2023-10-17T07:52:20.387Z,92453.25
2023-10-17T07:55:02.428Z,92455.50
2023-10-17T07:57:38.942Z,92457.09
2023-10-17T08:00:28.138Z,92459.84
2023-10-17T08:03:19.948Z,92458.41
2023-10-17T08:06:07.816Z,92467.66
2023-10-17T08:08:46.115Z,92445.19
2023-10-17T08:11:30.201Z,92462.69
2023-10-17T08:14:05.395Z,92451.97
2023-10-17T08:16:35.339Z,92462.19
2023-10-17T08:19:16.321Z,92467.41
2023-10-17T08:21:52.937Z,92455.88
2023-10-17T08:24:40.220Z,92459.75
2023-10-17T08:27:16.010Z,92431.16
2023-10-17T08:30:05.421Z,92444.19
2023-10-17T08:32:53.912Z,92438.66
2023-10-17T08:35:22.895Z,92444.13
2023-10-17T08:37:55.065Z,92454.50
2023-10-17T08:40:32.417Z,92445.03
2023-10-17T08:43:09.426Z,92450.41
2023-10-17T08:45:41.460Z,92443.66
2023-10-17T08:48:13.826Z,92451.41
2023-10-17T08:50:42.995Z,92455.03
2023-10-17T08:53:23.770Z,92445.00
2023-10-17T08:55:53.179Z,92419.44
2023-10-17T08:58:33.381Z,92440.88
2023-10-17T09:01:14.761Z,92409.34
2023-10-17T09:03:49.182Z,92434.47
2023-10-17T09:06:17.954Z,92433.69
2023-10-17T09:08:55.461Z,92433.84
2023-10-17T09:11:43.837Z,92444.44
2023-10-17T09:14:30.286Z,92434.06
2023-10-17T09:17:19.666Z,92441.50
2023-10-17T09:19:48.785Z,92450.09
2023-10-17T09:22:18.203Z,92417.28
2023-10-17T09:24:52.729Z,92446.66
2023-10-17T09:27:22.312Z,92442.66
2023-10-17T09:29:58.344Z,92444.72
2023-10-17T09:32:38.655Z,92417.03
2023-10-17T09:35:19.292Z,92432.78
2023-10-17T09:37:53.906Z,92432.06
2023-10-17T09:40:32.868Z,92434.56
2023-10-17T09:43:03.333Z,92441.13
2023-10-17T09:45:36.894Z,92432.34
2023-10-17T09:48:08.555Z,92407.81
2023-10-17T09:50:39.949Z,92429.47
2023-10-17T09:53:22.339Z,92428.41
2023-10-17T09:55:58.148Z,92429.19
2023-10-17T09:58:40.352Z,92433.13
2023-10-17T10:01:22.776Z,92427.91
2023-10-17T10:03:54.973Z,92429.75
2023-10-17T10:06:33.854Z,92434.06
2023-10-17T10:09:09.153Z,92441.13
2023-10-17T10:11:52.850Z,92440.00
2023-10-17T10:14:30.662Z,92442.44
2023-10-17T10:17:05.948Z,92422.44
2023-10-17T10:19:58.291Z,92464.16
2023-10-17T10:22:28.127Z,92468.03
2023-10-17T10:25:07.713Z,92438.69
2023-10-17T10:27:36.430Z,92466.72
2023-10-17T10:30:46.398Z,92456.16
2023-10-17T10:33:16.262Z,92458.97
2023-10-17T10:35:48.433Z,92461.53
2023-10-17T10:38:17.164Z,92458.16
2023-10-17T10:40:47.581Z,92465.13
2023-10-17T10:43:21.314Z,92465.09
2023-10-17T10:45:58.105Z,92473.84
2023-10-17T10:48:27.040Z,92479.00
2023-10-17T10:51:00.376Z,92490.53
2023-10-17T10:53:41.948Z,92460.69
2023-10-17T10:56:13.682Z,92489.47
2023-10-17T10:58:50.404Z,92496.59
2023-10-17T11:01:20.744Z,92497.00
2023-10-17T11:03:50.997Z,92500.28
2023-10-17T11:06:30.770Z,92499.13
2023-10-17T11:08:59.240Z,92503.91
2023-10-17T11:11:27.979Z,92512.63
2023-10-17T11:13:57.261Z,92490.31
2023-10-17T11:16:29.296Z,92520.84
2023-10-17T11:18:58.180Z,92505.63
2023-10-17T11:21:27.240Z,92530.66
2023-10-17T11:24:02.467Z,92494.22
2023-10-17T11:26:37.168Z,92531.22
2023-10-17T11:29:06.137Z,92517.81
2023-10-17T11:31:35.548Z,92524.00
2023-10-17T11:34:15.454Z,92527.44
2023-10-17T11:36:58.458Z,92501.06
2023-10-17T11:39:28.756Z,92527.63
2023-10-17T11:41:57.551Z,92502.03
2023-10-17T11:44:29.672Z,92531.50
2023-10-17T11:47:05.480Z,92506.53
2023-10-17T11:49:37.904Z,92519.47
2023-10-17T11:52:13.045Z,92553.22
2023-10-17T11:55:15.142Z,92552.69
2023-10-17T11:57:48.491Z,92530.50
2023-10-17T12:00:20.621Z,92566.88
2023-10-17T12:02:50.746Z,92560.53
2023-10-17T12:05:21.712Z,92570.34
2023-10-17T12:07:59.882Z,92548.88
2023-10-17T12:10:34.952Z,92577.00
2023-10-17T12:13:09.190Z,92575.72
2023-10-17T12:15:37.879Z,92580.66
2023-10-17T12:18:06.978Z,92581.63
2023-10-17T12:20:35.676Z,92573.13
2023-10-17T12:23:04.102Z,92582.66
2023-10-17T12:25:35.553Z,92531.06
2023-10-17T12:28:04.428Z,92578.88
2023-10-17T12:30:38.658Z,92584.34
2023-10-17T12:33:08.673Z,92578.38
2023-10-17T12:35:39.673Z,92585.31
2023-10-17T12:38:23.415Z,92570.25
2023-10-17T12:40:51.509Z,92591.19
2023-10-17T12:43:24.018Z,92598.59
2023-10-17T12:45:54.756Z,92581.22
2023-10-17T12:48:23.523Z,92607.78
2023-10-17T12:50:52.217Z,92602.41
2023-10-17T12:53:20.650Z,92607.31
2023-10-17T12:55:49.298Z,92589.72
2023-10-17T12:58:21.714Z,92594.56
2023-10-17T13:00:51.290Z,92619.94
2023-10-17T13:03:20.878Z,92615.28
2023-10-17T13:05:49.812Z,92619.41
2023-10-17T13:08:18.685Z,92607.78
2023-10-17T13:10:47.440Z,92594.63
2023-10-17T13:13:16.216Z,92610.88
2023-10-17T13:15:46.272Z,92643.88
2023-10-17T13:18:18.327Z,92638.19
2023-10-17T13:21:04.290Z,92641.78
2023-10-17T13:23:40.161Z,92649.91
2023-10-17T13:26:22.525Z,92643.78
2023-10-17T13:28:51.358Z,92635.16
2023-10-17T13:31:21.583Z,92652.47
2023-10-17T13:33:53.249Z,92627.69
2023-10-17T13:36:22.862Z,92651.94
2023-10-17T13:38:51.614Z,92657.66
2023-10-17T13:41:20.457Z,92666.81
2023-10-17T13:43:50.153Z,92670.16
2023-10-17T13:46:21.405Z,92647.91
2023-10-17T13:48:53.268Z,92650.19
2023-10-17T13:51:22.117Z,92649.19
2023-10-17T13:53:51.025Z,92654.19
2023-10-17T13:56:24.201Z,92676.44
2023-10-17T13:58:53.239Z,92689.50
2023-10-17T14:01:34.900Z,92687.97
2023-10-17T14:04:04.413Z,92691.72
2023-10-17T14:06:47.644Z,92689.22
2023-10-17T14:09:19.557Z,92696.13
2023-10-17T14:11:49.015Z,92681.88
2023-10-17T14:14:18.013Z,92710.56
2023-10-17T14:16:46.868Z,92718.09
2023-10-17T14:19:20.536Z,92717.38
2023-10-17T14:22:09.375Z,92717.25
2023-10-17T14:24:56.296Z,92719.97
2023-10-17T14:27:27.614Z,92720.56
2023-10-17T14:29:56.230Z,92691.19
2023-10-17T14:32:26.274Z,92713.72
2023-10-17T14:34:55.569Z,92739.31
2023-10-17T14:37:25.991Z,92738.09
2023-10-17T14:39:57.973Z,92741.22
2023-10-17T14:42:30.568Z,92730.22
2023-10-17T14:44:59.432Z,92744.13
2023-10-17T14:47:28.933Z,92741.13
2023-10-17T14:49:57.375Z,92744.75
2023-10-17T14:52:26.817Z,92747.13
2023-10-17T14:54:55.570Z,92752.81
2023-10-17T14:57:24.324Z,92759.28
2023-10-17T14:59:52.890Z,92764.94
2023-10-17T15:02:21.698Z,92770.91
2023-10-17T15:04:54.163Z,92774.53
2023-10-17T15:07:22.749Z,92785.38
2023-10-17T15:09:53.999Z,92770.13
2023-10-17T15:12:22.758Z,92798.59
2023-10-17T15:14:51.403Z,92802.25
2023-10-17T15:17:20.789Z,92782.91
2023-10-17T15:19:52.495Z,92807.53
2023-10-17T15:22:21.163Z,92775.31
2023-10-17T15:24:53.044Z,92813.81
2023-10-17T15:27:21.745Z,92798.34
2023-10-17T15:29:53.590Z,92821.38
2023-10-17T15:32:22.223Z,92799.97
2023-10-17T15:34:51.171Z,92834.59
2023-10-17T15:37:20.204Z,92814.97
2023-10-17T15:39:49.397Z,92801.31
2023-10-17T15:42:18.178Z,92849.66
2023-10-17T15:44:48.777Z,92853.81
2023-10-17T15:47:18.463Z,92845.09
2023-10-17T15:49:48.572Z,92851.78
2023-10-17T15:52:17.293Z,92870.13
2023-10-17T15:54:47.307Z,92870.66
2023-10-17T15:57:17.406Z,92879.44
2023-10-17T15:59:48.237Z,92883.81
2023-10-17T16:02:16.509Z,92858.50
2023-10-17T16:04:45.184Z,92870.19
2023-10-17T16:07:14.238Z,92894.75
2023-10-17T16:09:44.886Z,92906.13
2023-10-17T16:12:13.552Z,92908.72
2023-10-17T16:14:41.880Z,92882.38
2023-10-17T16:17:10.608Z,92887.28
2023-10-17T16:19:39.001Z,92907.16
2023-10-17T16:22:10.024Z,92908.22
2023-10-17T16:24:38.697Z,92913.38
2023-10-17T16:27:07.177Z,92926.06
2023-10-17T16:29:36.078Z,92911.84
2023-10-17T16:32:05.039Z,92935.63
2023-10-17T16:34:34.550Z,92933.56
2023-10-17T16:37:04.118Z,92939.75
2023-10-17T16:39:34.411Z,92950.56
2023-10-17T16:42:03.115Z,92955.44
2023-10-17T16:44:32.640Z,92964.50
2023-10-17T16:47:02.796Z,92977.16
2023-10-17T16:49:36.534Z,92984.41
2023-10-17T16:52:05.037Z,93002.25
2023-10-17T16:54:33.752Z,92990.81
2023-10-17T16:57:02.397Z,92991.06
2023-10-17T16:59:33.163Z,92995.69
2023-10-17T17:02:01.843Z,92975.28
2023-10-17T17:04:33.851Z,92998.50
2023-10-17T17:07:02.344Z,93011.66
2023-10-17T17:09:31.516Z,93011.88
2023-10-17T17:11:59.866Z,93024.75
2023-10-17T17:14:28.750Z,93026.06
2023-10-17T17:16:59.570Z,93029.16
2023-10-17T17:19:31.232Z,93034.31
2023-10-17T17:22:01.083Z,93041.78
2023-10-17T17:24:30.046Z,93041.97
2023-10-17T17:26:58.888Z,93034.75
2023-10-17T17:29:30.077Z,93046.47
2023-10-17T17:31:59.093Z,93021.38
2023-10-17T17:34:27.549Z,93040.78
2023-10-17T17:36:56.206Z,93063.25
2023-10-17T17:39:26.731Z,93051.09
2023-10-17T17:41:55.502Z,93066.34
2023-10-17T17:44:24.122Z,93078.50
2023-10-17T17:46:52.863Z,93076.88
2023-10-17T17:49:21.564Z,93083.88
2023-10-17T17:51:50.243Z,93055.19
2023-10-17T17:54:19.056Z,93088.75
2023-10-17T17:56:49.891Z,93085.56
2023-10-17T17:59:18.482Z,93081.59
2023-10-17T18:01:47.099Z,93107.50
2023-10-17T18:04:30.247Z,93093.25
2023-10-17T18:07:02.701Z,93094.59
2023-10-17T18:09:31.332Z,93108.53
2023-10-17T18:12:00.483Z,93071.81
2023-10-17T18:14:30.349Z,93109.75
2023-10-17T18:16:59.012Z,93078.59
2023-10-17T18:19:28.112Z,93119.91
2023-10-17T18:21:56.540Z,93105.19
2023-10-17T18:24:25.040Z,93124.28
2023-10-17T18:26:53.699Z,93135.16
2023-10-17T18:29:22.636Z,93124.00
2023-10-17T18:31:52.295Z,93113.16
2023-10-17T18:34:24.091Z,93118.31
2023-10-17T18:36:53.116Z,93135.09
2023-10-17T18:39:22.775Z,93141.88
2023-10-17T18:41:52.664Z,93142.94
2023-10-17T18:44:22.188Z,93126.44
2023-10-17T18:46:51.738Z,93162.16
2023-10-17T18:49:20.440Z,93156.19
2023-10-17T18:51:49.266Z,93164.22
2023-10-17T18:54:18.012Z,93169.41
2023-10-17T18:56:46.911Z,93168.31
2023-10-17T18:59:16.075Z,93152.19
2023-10-17T19:01:46.375Z,93171.75
2023-10-17T19:04:17.124Z,93154.88
2023-10-17T19:06:46.085Z,93176.31
2023-10-17T19:09:16.987Z,93182.03
2023-10-17T19:11:45.151Z,93158.31
2023-10-17T19:14:13.815Z,93173.94
2023-10-17T19:16:42.461Z,93167.19
2023-10-17T19:19:11.269Z,93155.03
2023-10-17T19:21:39.942Z,93189.16
2023-10-17T19:24:09.178Z,93180.88
2023-10-17T19:26:37.891Z,93188.97
2023-10-17T19:29:05.832Z,93215.88
2023-10-17T19:31:34.100Z,93213.59
2023-10-17T19:34:03.867Z,93207.06
2023-10-17T19:36:32.447Z,93197.28
2023-10-17T19:39:20.503Z,93202.56
2023-10-17T19:41:53.821Z,93220.88
2023-10-17T19:44:24.476Z,93226.81
2023-10-17T19:46:52.884Z,93230.41
2023-10-17T19:49:21.094Z,93236.19
2023-10-17T19:51:50.743Z,93217.59
2023-10-17T19:54:19.324Z,93244.53
2023-10-17T19:56:47.959Z,93260.63
2023-10-17T19:59:16.746Z,93259.63
2023-10-17T20:01:47.492Z,93260.72
2023-10-17T20:04:16.695Z,93267.75
2023-10-17T20:06:44.777Z,93274.75
2023-10-17T20:09:13.028Z,93250.97
2023-10-17T20:11:41.604Z,93274.03
2023-10-17T20:14:09.962Z,93288.31
2023-10-17T20:16:38.137Z,93271.28
2023-10-17T20:19:06.613Z,93303.69
2023-10-17T20:21:35.282Z,93307.28
2023-10-17T20:24:03.910Z,93302.38
2023-10-17T20:26:32.542Z,93302.88
2023-10-17T20:29:01.167Z,93317.91
2023-10-17T20:31:29.754Z,93322.31
2023-10-17T20:33:59.394Z,93300.59
2023-10-17T20:36:28.113Z,93322.56
2023-10-17T20:38:59.021Z,93329.84
2023-10-17T20:41:30.752Z,93310.16
2023-10-17T20:43:59.330Z,93306.03
2023-10-17T20:46:32.298Z,93332.19
2023-10-17T20:49:03.880Z,93335.28
2023-10-17T20:51:32.712Z,93318.72
2023-10-17T20:54:01.480Z,93358.13
2023-10-17T20:56:38.736Z,93352.94
2023-10-17T20:59:15.648Z,93352.69
2023-10-17T21:01:44.030Z,93364.38
2023-10-17T21:04:14.143Z,93366.44
2023-10-17T21:06:42.835Z,93360.75
2023-10-17T21:09:11.975Z,93367.47
2023-10-17T21:11:41.610Z,93360.75
2023-10-17T21:14:12.379Z,93362.81
2023-10-17T21:16:41.331Z,93365.41
2023-10-17T21:19:10.691Z,93363.06
2023-10-17T21:21:42.205Z,93367.97
2023-10-17T21:24:11.898Z,93362.72
2023-10-17T21:26:42.325Z,93367.63
2023-10-17T21:29:12.359Z,93369.19
2023-10-17T21:31:40.870Z,93363.97
2023-10-17T21:34:10.849Z,93358.50
2023-10-17T21:36:39.699Z,93369.63
2023-10-17T21:39:09.351Z,93379.25
2023-10-17T21:41:39.007Z,93379.47
2023-10-17T21:44:07.799Z,93379.41
2023-10-17T21:46:36.537Z,93378.84
2023-10-17T21:49:06.245Z,93362.16
2023-10-17T21:51:35.510Z,93385.16
2023-10-17T21:54:04.141Z,93369.66
2023-10-17T21:56:32.773Z,93361.06
2023-10-17T21:59:01.402Z,93371.38
2023-10-17T22:01:29.716Z,93372.44
2023-10-17T22:03:58.525Z,93359.50
2023-10-17T22:06:28.178Z,93398.13
2023-10-17T22:09:01.721Z,93372.22
2023-10-17T22:11:30.977Z,93375.34
2023-10-17T22:13:59.491Z,93392.16
2023-10-17T22:16:28.441Z,93394.03
2023-10-17T22:18:57.508Z,93371.72
2023-10-17T22:21:26.010Z,93363.84
2023-10-17T22:23:54.616Z,93382.47
2023-10-17T22:26:24.610Z,93379.75
2023-10-17T22:28:55.210Z,93381.00
2023-10-17T22:31:24.234Z,93368.31
2023-10-17T22:33:53.413Z,93382.53
2023-10-17T22:36:21.820Z,93393.13
2023-10-17T22:38:50.514Z,93395.97
2023-10-17T22:41:19.347Z,93376.38
2023-10-17T22:43:49.215Z,93385.47
2023-10-17T22:46:17.798Z,93381.22
2023-10-17T22:48:47.712Z,93396.94
2023-10-17T22:51:16.387Z,93381.88
2023-10-17T22:53:46.532Z,93381.31
2023-10-17T22:56:15.173Z,93382.91
2023-10-17T22:58:43.873Z,93387.81
2023-10-17T23:01:14.754Z,93385.75
2023-10-17T23:03:43.810Z,93380.69
2023-10-17T23:06:12.732Z,93386.22
2023-10-17T23:08:43.051Z,93396.09
2023-10-17T23:11:12.666Z,93379.81
2023-10-17T23:13:41.336Z,93396.09
2023-10-17T23:16:13.640Z,93412.16
2023-10-17T23:18:44.049Z,93411.41
2023-10-17T23:21:13.889Z,93416.59
2023-10-17T23:23:42.631Z,93409.63
2023-10-17T23:26:11.218Z,93407.81
2023-10-17T23:28:39.916Z,93403.44
2023-10-17T23:31:12.056Z,93384.25
2023-10-17T23:33:43.330Z,93397.69
2023-10-17T23:36:12.181Z,93384.22
2023-10-17T23:38:40.898Z,93374.09
2023-10-17T23:41:09.595Z,93374.63
2023-10-17T23:43:38.548Z,93397.97
2023-10-17T23:46:07.292Z,93410.44
2023-10-17T23:48:36.433Z,93404.47
2023-10-17T23:51:05.377Z,93399.56
2023-10-17T23:53:34.847Z,93415.69
2023-10-17T23:56:16.163Z,93391.59
2023-10-17T23:58:45.050Z,93409.47
